Time,TemperatureF,DewpointF,PressureIn,WindDirection,WindDirectionDegrees,WindSpeedMPH,WindSpeedGustMPH,Humidity,HourlyPrecipIn,Conditions,Clouds,dailyrainin,SoftwareType,DateUTC
2013-06-18 00:00:00,59.3,57.9,30.16,SW,227,1.0,3.0,95,0.00,,,0.00,Wunderground v.1.15,2013-06-18 04:00:00,
2013-06-18 00:05:00,59.7,58.3,30.16,SW,227,1.0,3.0,95,0.00,,,0.00,Wunderground v.1.15,2013-06-18 04:05:00,
2013-06-18 00:10:00,59.7,58.3,30.16,SW,227,1.0,1.0,95,0.00,,,0.00,Wunderground v.1.15,2013-06-18 04:10:00,
2013-06-18 00:15:00,59.6,58.2,30.16,SW,227,1.0,1.0,95,0.00,,,0.00,Wunderground v.1.15,2013-06-18 04:15:00,
2013-06-18 00:20:00,59.7,58.3,30.16,SW,227,0.0,0.0,95,0.00,,,0.00,Wunderground v.1.15,2013-06-18 04:20:00,
2013-06-18 00:25:00,59.4,58.0,30.16,SW,227,0.0,0.0,95,0.00,,,0.00,Wunderground v.1.15,2013-06-18 04:25:00,
2013-06-18 00:30:00,59.1,57.7,30.16,SW,227,0.0,0.0,95,0.00,,,0.00,Wunderground v.1.15,2013-06-18 04:30:00,
2013-06-18 00:35:00,59.1,57.7,30.15,SW,227,0.0,0.0,95,0.00,,,0.00,Wunderground v.1.15,2013-06-18 04:35:00,
2013-06-18 00:40:00,59.1,58.0,30.16,SW,227,0.0,0.0,96,0.00,,,0.00,Wunderground v.1.15,2013-06-18 04:40:00,
2013-06-18 00:45:00,58.9,57.5,30.16,SW,227,1.0,1.0,95,0.00,,,0.00,Wunderground v.1.15,2013-06-18 04:45:00,
2013-06-18 00:50:00,58.7,57.3,30.15,SW,227,1.0,1.0,95,0.00,,,0.00,Wunderground v.1.15,2013-06-18 04:50:00,
2013-06-18 00:55:00,58.7,57.3,30.15,SW,227,0.0,1.0,95,0.00,,,0.00,Wunderground v.1.15,2013-06-18 04:55:00,
2013-06-18 01:00:00,58.6,57.5,30.15,SW,227,1.0,1.0,96,0.00,,,0.00,Wunderground v.1.15,2013-06-18 05:00:00,
2013-06-18 01:10:00,58.3,56.9,30.14,SW,227,1.0,1.0,95,0.00,,,0.00,Wunderground v.1.15,2013-06-18 05:10:00,
2013-06-18 01:15:00,58.3,57.2,30.15,SW,227,1.0,2.0,96,0.00,,,0.00,Wunderground v.1.15,2013-06-18 05:15:00,
2013-06-18 01:20:00,58.4,57.3,30.15,SW,227,1.0,2.0,96,0.00,,,0.00,Wunderground v.1.15,2013-06-18 05:20:00,
2013-06-18 01:25:00,58.2,57.1,30.15,SW,227,1.0,2.0,96,0.00,,,0.00,Wunderground v.1.15,2013-06-18 05:25:00,
2013-06-18 01:30:00,58.1,57.0,30.15,SW,227,0.0,2.0,96,0.00,,,0.00,Wunderground v.1.15,2013-06-18 05:30:00,
2013-06-18 01:35:00,58.0,56.9,30.15,SW,227,0.0,2.0,96,0.00,,,0.00,Wunderground v.1.15,2013-06-18 05:35:00,
2013-06-18 01:45:00,58.8,57.7,30.15,North,5,2.0,2.0,96,0.00,,,0.00,Wunderground v.1.15,2013-06-18 05:45:00,
2013-06-18 01:50:00,58.9,57.8,30.15,North,5,2.0,3.0,96,0.00,,,0.00,Wunderground v.1.15,2013-06-18 05:50:00,
2013-06-18 01:55:00,58.9,57.8,30.15,North,5,1.0,3.0,96,0.00,,,0.00,Wunderground v.1.15,2013-06-18 05:55:00,
2013-06-18 02:00:00,58.8,57.7,30.16,North,5,1.0,2.0,96,0.00,,,0.00,Wunderground v.1.15,2013-06-18 06:00:00,
2013-06-18 02:05:00,58.8,57.7,30.16,North,5,1.0,2.0,96,0.00,,,0.00,Wunderground v.1.15,2013-06-18 06:05:00,
2013-06-18 02:15:00,59.0,57.9,30.16,North,5,0.0,2.0,96,0.00,,,0.00,Wunderground v.1.15,2013-06-18 06:15:00,
2013-06-18 02:20:00,59.0,57.9,30.16,North,5,0.0,2.0,96,0.00,,,0.00,Wunderground v.1.15,2013-06-18 06:20:00,
2013-06-18 02:25:00,58.9,57.8,30.15,North,5,0.0,2.0,96,0.00,,,0.00,Wunderground v.1.15,2013-06-18 06:25:00,
2013-06-18 02:30:00,58.8,57.7,30.15,North,5,0.0,2.0,96,0.00,,,0.00,Wunderground v.1.15,2013-06-18 06:30:00,
2013-06-18 02:35:00,58.7,57.6,30.15,North,5,0.0,2.0,96,0.00,,,0.00,Wunderground v.1.15,2013-06-18 06:35:00,
2013-06-18 02:40:00,58.7,57.6,30.15,North,5,0.0,2.0,96,0.00,,,0.00,Wunderground v.1.15,2013-06-18 06:40:00,
2013-06-18 02:45:00,58.6,57.5,30.14,North,5,0.0,2.0,96,0.00,,,0.00,Wunderground v.1.15,2013-06-18 06:45:00,
2013-06-18 02:50:00,58.6,57.5,30.14,North,5,0.0,2.0,96,0.00,,,0.00,Wunderground v.1.15,2013-06-18 06:50:00,
2013-06-18 02:55:00,58.6,57.5,30.13,North,5,0.0,2.0,96,0.00,,,0.00,Wunderground v.1.15,2013-06-18 06:55:00,
2013-06-18 03:00:00,58.6,57.5,30.13,North,5,0.0,2.0,96,0.00,,,0.00,Wunderground v.1.15,2013-06-18 07:00:00,
2013-06-18 03:05:00,58.6,57.5,30.13,North,5,0.0,2.0,96,0.00,,,0.00,Wunderground v.1.15,2013-06-18 07:05:00,
2013-06-18 03:10:00,58.7,57.6,30.13,North,5,0.0,2.0,96,0.00,,,0.00,Wunderground v.1.15,2013-06-18 07:10:00,
2013-06-18 03:20:00,58.6,57.5,30.14,North,5,0.0,2.0,96,0.00,,,0.00,Wunderground v.1.15,2013-06-18 07:20:00,
2013-06-18 03:25:00,58.7,57.6,30.14,North,5,0.0,2.0,96,0.00,,,0.00,Wunderground v.1.15,2013-06-18 07:25:00,
2013-06-18 03:30:00,58.9,58.1,30.14,North,5,0.0,2.0,97,0.00,,,0.00,Wunderground v.1.15,2013-06-18 07:30:00,
2013-06-18 03:35:00,58.9,57.8,30.15,North,5,0.0,2.0,96,0.00,,,0.00,Wunderground v.1.15,2013-06-18 07:35:00,
2013-06-18 03:40:00,58.9,57.8,30.14,North,5,0.0,2.0,96,0.00,,,0.00,Wunderground v.1.15,2013-06-18 07:40:00,
2013-06-18 03:50:00,58.9,57.8,30.14,North,5,0.0,2.0,96,0.00,,,0.00,Wunderground v.1.15,2013-06-18 07:50:00,
2013-06-18 03:55:00,58.9,57.8,30.14,North,5,0.0,2.0,96,0.00,,,0.00,Wunderground v.1.15,2013-06-18 07:55:00,
2013-06-18 04:00:00,58.8,57.7,30.14,North,5,0.0,2.0,96,0.00,,,0.00,Wunderground v.1.15,2013-06-18 08:00:00,
2013-06-18 04:05:00,58.7,57.6,30.14,North,5,0.0,2.0,96,0.00,,,0.00,Wunderground v.1.15,2013-06-18 08:05:00,
2013-06-18 04:10:00,58.7,57.6,30.14,North,5,0.0,2.0,96,0.00,,,0.00,Wunderground v.1.15,2013-06-18 08:10:00,
2013-06-18 04:15:00,58.7,57.6,30.14,North,5,0.0,2.0,96,0.00,,,0.00,Wunderground v.1.15,2013-06-18 08:15:00,
2013-06-18 04:25:00,58.6,57.5,30.13,North,5,0.0,2.0,96,0.00,,,0.00,Wunderground v.1.15,2013-06-18 08:25:00,
2013-06-18 04:30:00,58.6,57.8,30.13,North,5,0.0,2.0,97,0.00,,,0.00,Wunderground v.1.15,2013-06-18 08:30:00,
2013-06-18 04:35:00,58.5,57.4,30.14,North,5,0.0,2.0,96,0.00,,,0.00,Wunderground v.1.15,2013-06-18 08:35:00,
2013-06-18 04:40:00,58.4,57.3,30.14,North,5,0.0,2.0,96,0.00,,,0.00,Wunderground v.1.15,2013-06-18 08:40:00,
2013-06-18 04:45:00,58.3,57.2,30.14,North,5,0.0,2.0,96,0.00,,,0.00,Wunderground v.1.15,2013-06-18 08:45:00,
2013-06-18 04:55:00,58.3,57.2,30.13,North,5,0.0,2.0,96,0.00,,,0.00,Wunderground v.1.15,2013-06-18 08:55:00,
2013-06-18 05:00:00,58.3,57.2,30.13,North,5,0.0,2.0,96,0.00,,,0.00,Wunderground v.1.15,2013-06-18 09:00:00,
2013-06-18 05:05:00,58.4,57.6,30.13,North,5,0.0,2.0,97,0.00,,,0.00,Wunderground v.1.15,2013-06-18 09:05:00,
2013-06-18 05:10:00,58.4,57.3,30.13,North,5,0.0,2.0,96,0.00,,,0.01,Wunderground v.1.15,2013-06-18 09:10:00,
2013-06-18 05:15:00,58.4,57.6,30.13,North,5,0.0,2.0,97,0.00,,,0.01,Wunderground v.1.15,2013-06-18 09:15:00,
2013-06-18 05:20:00,58.4,57.6,30.14,North,5,0.0,2.0,97,0.00,,,0.01,Wunderground v.1.15,2013-06-18 09:20:00,
2013-06-18 05:30:00,58.2,57.4,30.13,North,5,0.0,2.0,97,0.00,,,0.01,Wunderground v.1.15,2013-06-18 09:30:00,
2013-06-18 05:35:00,58.2,57.4,30.14,North,5,0.0,2.0,97,0.00,,,0.01,Wunderground v.1.15,2013-06-18 09:35:00,
2013-06-18 05:40:00,58.1,57.3,30.14,North,5,0.0,2.0,97,0.00,,,0.01,Wunderground v.1.15,2013-06-18 09:40:00,
2013-06-18 05:45:00,58.2,57.4,30.15,North,5,0.0,2.0,97,0.00,,,0.01,Wunderground v.1.15,2013-06-18 09:45:00,
2013-06-18 05:50:00,58.5,57.7,30.14,North,5,0.0,2.0,97,0.00,,,0.01,Wunderground v.1.15,2013-06-18 09:50:00,
2013-06-18 06:00:00,58.7,57.9,30.15,North,5,2.0,2.0,97,0.00,,,0.01,Wunderground v.1.15,2013-06-18 10:00:00,
2013-06-18 06:10:00,58.9,58.1,30.15,North,5,2.0,3.0,97,0.00,,,0.01,Wunderground v.1.15,2013-06-18 10:10:00,
2013-06-18 06:15:00,58.8,58.0,30.15,North,5,2.0,3.0,97,0.00,,,0.01,Wunderground v.1.15,2013-06-18 10:15:00,
2013-06-18 06:20:00,59.1,58.2,30.15,North,5,2.0,2.0,97,0.00,,,0.01,Wunderground v.1.15,2013-06-18 10:20:00,
2013-06-18 06:25:00,58.7,57.9,30.15,North,5,2.0,2.0,97,0.00,,,0.01,Wunderground v.1.15,2013-06-18 10:25:00,
2013-06-18 06:35:00,58.1,57.3,30.16,North,5,2.0,3.0,97,0.00,,,0.01,Wunderground v.1.15,2013-06-18 10:35:00,
2013-06-18 06:40:00,58.0,57.2,30.17,North,5,3.0,3.0,97,0.00,,,0.01,Wunderground v.1.15,2013-06-18 10:40:00,
2013-06-18 06:45:00,57.9,57.1,30.17,North,5,3.0,4.0,97,0.00,,,0.01,Wunderground v.1.15,2013-06-18 10:45:00,
2013-06-18 06:50:00,57.8,57.0,30.17,NNW,346,4.0,5.0,97,0.00,,,0.01,Wunderground v.1.15,2013-06-18 10:50:00,
2013-06-18 06:55:00,57.8,57.0,30.17,NNW,346,4.0,5.0,97,0.00,,,0.01,Wunderground v.1.15,2013-06-18 10:55:00,
2013-06-18 07:05:00,57.8,57.0,30.17,NNW,334,3.0,6.0,97,0.00,,,0.01,Wunderground v.1.15,2013-06-18 11:05:00,
2013-06-18 07:10:00,57.8,57.0,30.18,NW,323,4.0,4.0,97,0.00,,,0.01,Wunderground v.1.15,2013-06-18 11:10:00,
2013-06-18 07:15:00,57.7,56.9,30.18,NNW,334,4.0,5.0,97,0.00,,,0.01,Wunderground v.1.15,2013-06-18 11:15:00,
2013-06-18 07:20:00,57.6,56.8,30.18,NNW,331,4.0,5.0,97,0.00,,,0.01,Wunderground v.1.15,2013-06-18 11:20:00,
2013-06-18 07:25:00,57.6,56.8,30.18,NNW,331,4.0,5.0,97,0.00,,,0.01,Wunderground v.1.15,2013-06-18 11:25:00,
2013-06-18 07:30:00,57.7,57.1,30.18,NW,320,3.0,4.0,98,0.00,,,0.01,Wunderground v.1.15,2013-06-18 11:30:00,
2013-06-18 07:35:00,57.5,56.7,30.19,NNW,338,4.0,4.0,97,0.00,,,0.01,Wunderground v.1.15,2013-06-18 11:35:00,
2013-06-18 07:40:00,57.5,56.7,30.19,NNW,334,5.0,5.0,97,0.00,,,0.01,Wunderground v.1.15,2013-06-18 11:40:00,
2013-06-18 07:45:00,57.3,56.5,30.19,NNW,344,5.0,5.0,97,0.00,,,0.01,Wunderground v.1.15,2013-06-18 11:45:00,
2013-06-18 07:50:00,57.5,56.7,30.19,NNW,342,4.0,4.0,97,0.00,,,0.01,Wunderground v.1.15,2013-06-18 11:50:00,
2013-06-18 07:55:00,57.2,56.6,30.19,NW,321,4.0,4.0,98,0.00,,,0.01,Wunderground v.1.15,2013-06-18 11:55:00,
2013-06-18 08:00:00,57.1,56.5,30.19,NW,324,4.0,6.0,98,0.00,,,0.01,Wunderground v.1.15,2013-06-18 12:00:00,
2013-06-18 08:10:00,57.2,56.6,30.19,NNW,329,4.0,4.0,98,0.00,,,0.01,Wunderground v.1.15,2013-06-18 12:10:00,
2013-06-18 08:15:00,57.2,56.6,30.19,NNW,348,5.0,5.0,98,0.00,,,0.01,Wunderground v.1.15,2013-06-18 12:15:00,
2013-06-18 08:20:00,57.2,56.6,30.19,NNW,343,5.0,6.0,98,0.00,,,0.01,Wunderground v.1.15,2013-06-18 12:20:00,
2013-06-18 08:25:00,56.9,56.1,30.19,NNW,347,4.0,6.0,97,0.00,,,0.01,Wunderground v.1.15,2013-06-18 12:25:00,
2013-06-18 08:30:00,57.0,56.2,30.19,NNE,19,4.0,4.0,97,0.00,,,0.01,Wunderground v.1.15,2013-06-18 12:30:00,
2013-06-18 08:40:00,57.0,56.4,30.20,North,5,3.0,4.0,98,0.00,,,0.01,Wunderground v.1.15,2013-06-18 12:40:00,
2013-06-18 08:45:00,57.0,56.2,30.20,NNW,334,4.0,4.0,97,0.00,,,0.01,Wunderground v.1.15,2013-06-18 12:45:00,
2013-06-18 08:50:00,57.1,56.3,30.21,North,351,3.0,4.0,97,0.00,,,0.01,Wunderground v.1.15,2013-06-18 12:50:00,
2013-06-18 08:55:00,57.5,56.7,30.21,North,351,3.0,4.0,97,0.00,,,0.01,Wunderground v.1.15,2013-06-18 12:55:00,
2013-06-18 09:00:00,57.5,56.4,30.21,NNE,18,3.0,3.0,96,0.00,,,0.01,Wunderground v.1.15,2013-06-18 13:00:00,
2013-06-18 09:05:00,57.9,56.8,30.21,NNW,336,4.0,5.0,96,0.00,,,0.01,Wunderground v.1.15,2013-06-18 13:05:00,
2013-06-18 09:15:00,57.5,55.5,30.22,NW,323,4.0,6.0,93,0.00,,,0.01,Wunderground v.1.15,2013-06-18 13:15:00,
2013-06-18 09:20:00,56.9,54.9,30.22,NNW,336,5.0,6.0,93,0.00,,,0.01,Wunderground v.1.15,2013-06-18 13:20:00,
2013-06-18 09:25:00,57.0,54.7,30.22,NNW,338,5.0,6.0,92,0.00,,,0.01,Wunderground v.1.15,2013-06-18 13:25:00,
2013-06-18 09:30:00,57.0,54.1,30.22,North,5,4.0,5.0,90,0.00,,,0.01,Wunderground v.1.15,2013-06-18 13:30:00,
2013-06-18 09:35:00,57.5,54.6,30.22,NNE,28,4.0,5.0,90,0.00,,,0.01,Wunderground v.1.15,2013-06-18 13:35:00,
2013-06-18 09:45:00,57.6,54.1,30.23,NNW,336,3.0,4.0,88,0.00,,,0.01,Wunderground v.1.15,2013-06-18 13:45:00,
2013-06-18 09:50:00,57.7,53.9,30.22,North,5,3.0,3.0,87,0.00,,,0.01,Wunderground v.1.15,2013-06-18 13:50:00,
2013-06-18 09:55:00,57.8,54.3,30.22,NNE,27,4.0,4.0,88,0.00,,,0.01,Wunderground v.1.15,2013-06-18 13:55:00,
2013-06-18 10:00:00,57.8,54.3,30.22,NE,34,4.0,4.0,88,0.00,,,0.01,Wunderground v.1.15,2013-06-18 14:00:00,
2013-06-18 10:05:00,58.1,54.6,30.22,NNE,26,3.0,6.0,88,0.00,,,0.01,Wunderground v.1.15,2013-06-18 14:05:00,
2013-06-18 10:10:00,58.1,54.6,30.22,NNE,28,4.0,4.0,88,0.00,,,0.01,Wunderground v.1.15,2013-06-18 14:10:00,
2013-06-18 10:20:00,58.1,54.2,30.23,NE,38,3.0,3.0,87,0.00,,,0.01,Wunderground v.1.15,2013-06-18 14:20:00,
2013-06-18 10:25:00,58.4,54.5,30.23,NNW,329,4.0,4.0,87,0.00,,,0.01,Wunderground v.1.15,2013-06-18 14:25:00,
2013-06-18 10:30:00,58.4,54.2,30.23,NNW,336,4.0,4.0,86,0.00,,,0.01,Wunderground v.1.15,2013-06-18 14:30:00,
2013-06-18 10:35:00,58.1,53.9,30.23,NW,306,4.0,5.0,86,0.00,,,0.01,Wunderground v.1.15,2013-06-18 14:35:00,
2013-06-18 10:40:00,58.2,54.3,30.23,NE,37,4.0,4.0,87,0.00,,,0.01,Wunderground v.1.15,2013-06-18 14:40:00,
2013-06-18 10:50:00,58.6,54.7,30.22,NNW,338,3.0,3.0,87,0.00,,,0.01,Wunderground v.1.15,2013-06-18 14:50:00,
2013-06-18 10:55:00,58.9,55.0,30.22,NNW,344,3.0,3.0,87,0.00,,,0.01,Wunderground v.1.15,2013-06-18 14:55:00,
2013-06-18 11:00:00,58.7,54.5,30.22,NNW,333,4.0,4.0,86,0.00,,,0.01,Wunderground v.1.15,2013-06-18 15:00:00,
2013-06-18 11:05:00,58.6,54.4,30.23,NNW,333,4.0,5.0,86,0.00,,,0.01,Wunderground v.1.15,2013-06-18 15:05:00,
2013-06-18 11:10:00,58.7,54.8,30.23,NNW,330,3.0,4.0,87,0.00,,,0.01,Wunderground v.1.15,2013-06-18 15:10:00,
2013-06-18 11:15:00,59.0,54.8,30.23,NNW,330,3.0,4.0,86,0.00,,,0.01,Wunderground v.1.15,2013-06-18 15:15:00,
2013-06-18 11:20:00,59.1,54.9,30.23,NNE,24,3.0,4.0,86,0.00,,,0.01,Wunderground v.1.15,2013-06-18 15:20:00,
2013-06-18 11:25:00,59.0,54.2,30.23,NW,325,3.0,4.0,84,0.00,,,0.01,Wunderground v.1.15,2013-06-18 15:25:00,
2013-06-18 11:30:00,59.6,55.1,30.23,NE,50,3.0,3.0,85,0.00,,,0.01,Wunderground v.1.15,2013-06-18 15:30:00,
2013-06-18 11:35:00,60.0,55.5,30.23,NW,314,2.0,3.0,85,0.00,,,0.01,Wunderground v.1.15,2013-06-18 15:35:00,
2013-06-18 11:40:00,59.8,55.0,30.23,NW,315,2.0,3.0,84,0.00,,,0.01,Wunderground v.1.15,2013-06-18 15:40:00,
2013-06-18 11:45:00,60.1,54.6,30.23,NW,315,3.0,3.0,82,0.00,,,0.01,Wunderground v.1.15,2013-06-18 15:45:00,
2013-06-18 11:55:00,60.5,55.0,30.23,NW,325,3.0,3.0,82,0.00,,,0.01,Wunderground v.1.15,2013-06-18 15:55:00,
2013-06-18 12:00:00,60.7,54.1,30.23,NNW,328,3.0,3.0,79,0.00,,,0.01,Wunderground v.1.15,2013-06-18 16:00:00,
2013-06-18 12:10:00,61.4,54.1,30.22,NNW,335,3.0,4.0,77,0.00,,,0.01,Wunderground v.1.15,2013-06-18 16:10:00,
2013-06-18 12:15:00,61.6,54.3,30.23,NNW,344,3.0,5.0,77,0.00,,,0.01,Wunderground v.1.15,2013-06-18 16:15:00,
2013-06-18 12:25:00,61.9,54.6,30.23,NNW,345,3.0,4.0,77,0.00,,,0.01,Wunderground v.1.15,2013-06-18 16:25:00,
2013-06-18 12:30:00,62.6,55.3,30.23,NNW,344,3.0,4.0,77,0.00,,,0.01,Wunderground v.1.15,2013-06-18 16:30:00,
2013-06-18 12:35:00,63.5,55.1,30.23,NE,34,3.0,5.0,74,0.00,,,0.01,Wunderground v.1.15,2013-06-18 16:35:00,
2013-06-18 12:40:00,63.9,55.1,30.23,NNE,14,4.0,4.0,73,0.00,,,0.01,Wunderground v.1.15,2013-06-18 16:40:00,
2013-06-18 12:45:00,64.4,55.6,30.22,NW,324,4.0,5.0,73,0.00,,,0.01,Wunderground v.1.15,2013-06-18 16:45:00,
2013-06-18 12:50:00,64.7,55.5,30.23,NNW,340,4.0,4.0,72,0.00,,,0.01,Wunderground v.1.15,2013-06-18 16:50:00,
2013-06-18 13:00:00,64.5,55.3,30.22,North,355,5.0,5.0,72,0.00,,,0.01,Wunderground v.1.15,2013-06-18 17:00:00,
2013-06-18 13:05:00,65.1,55.5,30.22,NNW,343,5.0,6.0,71,0.00,,,0.01,Wunderground v.1.15,2013-06-18 17:05:00,
2013-06-18 13:10:00,64.8,54.8,30.23,NNW,336,5.0,5.0,70,0.00,,,0.01,Wunderground v.1.15,2013-06-18 17:10:00,
2013-06-18 13:15:00,65.4,55.0,30.23,NNW,337,4.0,6.0,69,0.00,,,0.01,Wunderground v.1.15,2013-06-18 17:15:00,
2013-06-18 13:20:00,65.5,55.1,30.23,North,360,4.0,6.0,69,0.00,,,0.01,Wunderground v.1.15,2013-06-18 17:20:00,
2013-06-18 13:30:00,65.3,54.1,30.23,NNW,333,4.0,6.0,67,0.00,,,0.01,Wunderground v.1.15,2013-06-18 17:30:00,
2013-06-18 13:35:00,64.3,53.5,30.24,NNW,331,5.0,6.0,68,0.00,,,0.01,Wunderground v.1.15,2013-06-18 17:35:00,
2013-06-18 13:40:00,64.1,53.7,30.23,NW,311,6.0,9.0,69,0.00,,,0.01,Wunderground v.1.15,2013-06-18 17:40:00,
2013-06-18 13:45:00,63.8,53.4,30.23,NNW,340,6.0,9.0,69,0.00,,,0.01,Wunderground v.1.15,2013-06-18 17:45:00,
2013-06-18 13:50:00,64.3,53.9,30.23,NNE,19,6.0,6.0,69,0.00,,,0.01,Wunderground v.1.15,2013-06-18 17:50:00,
2013-06-18 13:55:00,64.9,52.8,30.23,NNW,329,5.0,6.0,65,0.00,,,0.01,Wunderground v.1.15,2013-06-18 17:55:00,
2013-06-18 14:05:00,63.8,51.0,30.23,NNW,327,6.0,8.0,63,0.00,,,0.01,Wunderground v.1.15,2013-06-18 18:05:00,
2013-06-18 14:10:00,64.1,51.2,30.23,NNW,346,5.0,6.0,63,0.00,,,0.01,Wunderground v.1.15,2013-06-18 18:10:00,
2013-06-18 14:15:00,64.1,51.2,30.22,NW,311,5.0,6.0,63,0.00,,,0.01,Wunderground v.1.15,2013-06-18 18:15:00,
2013-06-18 14:20:00,64.2,51.3,30.22,NNW,338,5.0,5.0,63,0.00,,,0.01,Wunderground v.1.15,2013-06-18 18:20:00,
2013-06-18 14:25:00,64.4,51.1,30.23,NNE,32,5.0,6.0,62,0.00,,,0.01,Wunderground v.1.15,2013-06-18 18:25:00,
2013-06-18 14:35:00,64.9,51.1,30.23,North,360,5.0,6.0,61,0.00,,,0.01,Wunderground v.1.15,2013-06-18 18:35:00,
2013-06-18 14:40:00,64.8,51.0,30.23,NNE,30,5.0,6.0,61,0.00,,,0.01,Wunderground v.1.15,2013-06-18 18:40:00,
2013-06-18 14:45:00,65.4,50.7,30.22,North,360,5.0,6.0,59,0.00,,,0.01,Wunderground v.1.15,2013-06-18 18:45:00,
2013-06-18 14:50:00,66.0,51.3,30.22,NNE,24,5.0,8.0,59,0.00,,,0.01,Wunderground v.1.15,2013-06-18 18:50:00,
2013-06-18 14:55:00,66.6,50.4,30.23,North,11,5.0,8.0,56,0.00,,,0.01,Wunderground v.1.15,2013-06-18 18:55:00,
2013-06-18 15:00:00,66.3,50.1,30.22,NNE,30,5.0,6.0,56,0.00,,,0.01,Wunderground v.1.15,2013-06-18 19:00:00,
2013-06-18 15:10:00,65.6,50.4,30.22,North,5,7.0,7.0,58,0.00,,,0.01,Wunderground v.1.15,2013-06-18 19:10:00,
2013-06-18 15:15:00,65.4,49.8,30.22,NE,36,6.0,7.0,57,0.00,,,0.01,Wunderground v.1.15,2013-06-18 19:15:00,
2013-06-18 15:20:00,65.3,50.6,30.22,NNW,345,6.0,7.0,59,0.00,,,0.01,Wunderground v.1.15,2013-06-18 19:20:00,
2013-06-18 15:25:00,65.2,50.5,30.22,NW,317,6.0,10.0,59,0.00,,,0.01,Wunderground v.1.15,2013-06-18 19:25:00,
2013-06-18 15:30:00,65.4,50.7,30.22,North,355,6.0,6.0,59,0.00,,,0.01,Wunderground v.1.15,2013-06-18 19:30:00,
2013-06-18 15:35:00,65.4,50.2,30.22,North,10,6.0,6.0,58,0.00,,,0.01,Wunderground v.1.15,2013-06-18 19:35:00,
2013-06-18 15:40:00,65.9,50.7,30.22,NW,326,6.0,9.0,58,0.00,,,0.01,Wunderground v.1.15,2013-06-18 19:40:00,
2013-06-18 15:45:00,65.8,49.7,30.22,NNE,19,6.0,10.0,56,0.00,,,0.01,Wunderground v.1.15,2013-06-18 19:45:00,
2013-06-18 15:50:00,65.4,48.3,30.22,NNW,329,6.0,6.0,54,0.00,,,0.01,Wunderground v.1.15,2013-06-18 19:50:00,
2013-06-18 15:55:00,65.5,48.9,30.22,North,349,5.0,6.0,55,0.00,,,0.01,Wunderground v.1.15,2013-06-18 19:55:00,
2013-06-18 16:00:00,65.6,48.5,30.22,North,360,5.0,5.0,54,0.00,,,0.01,Wunderground v.1.15,2013-06-18 20:00:00,
2013-06-18 16:05:00,65.9,48.8,30.22,NNW,339,5.0,6.0,54,0.00,,,0.01,Wunderground v.1.15,2013-06-18 20:05:00,
2013-06-18 16:10:00,66.2,49.1,30.22,NE,34,5.0,6.0,54,0.00,,,0.01,Wunderground v.1.15,2013-06-18 20:10:00,
2013-06-18 16:15:00,66.3,48.1,30.21,North,350,5.0,7.0,52,0.00,,,0.01,Wunderground v.1.15,2013-06-18 20:15:00,
2013-06-18 16:20:00,66.7,48.0,30.21,NW,323,6.0,6.0,51,0.00,,,0.01,Wunderground v.1.15,2013-06-18 20:20:00,
2013-06-18 16:25:00,66.7,48.5,30.21,North,11,6.0,6.0,52,0.00,,,0.01,Wunderground v.1.15,2013-06-18 20:25:00,
2013-06-18 16:30:00,66.1,49.5,30.21,NNW,336,6.0,8.0,55,0.00,,,0.01,Wunderground v.1.15,2013-06-18 20:30:00,
2013-06-18 16:40:00,66.5,47.8,30.20,NNE,27,6.0,7.0,51,0.00,,,0.01,Wunderground v.1.15,2013-06-18 20:40:00,
2013-06-18 16:45:00,66.8,50.1,30.20,NE,42,6.0,7.0,55,0.00,,,0.01,Wunderground v.1.15,2013-06-18 20:45:00,
2013-06-18 16:50:00,66.9,50.2,30.20,NNW,327,5.0,6.0,55,0.00,,,0.01,Wunderground v.1.15,2013-06-18 20:50:00,
2013-06-18 16:55:00,66.3,49.2,30.20,NW,323,6.0,6.0,54,0.00,,,0.01,Wunderground v.1.15,2013-06-18 20:55:00,
2013-06-18 17:00:00,66.0,49.4,30.20,North,5,7.0,7.0,55,0.00,,,0.01,Wunderground v.1.15,2013-06-18 21:00:00,
2013-06-18 17:05:00,66.3,50.6,30.20,North,9,7.0,7.0,57,0.00,,,0.01,Wunderground v.1.15,2013-06-18 21:05:00,
2013-06-18 17:15:00,66.7,50.0,30.20,North,11,5.0,7.0,55,0.00,,,0.01,Wunderground v.1.15,2013-06-18 21:15:00,
2013-06-18 17:20:00,66.9,49.7,30.20,NNW,333,5.0,6.0,54,0.00,,,0.01,Wunderground v.1.15,2013-06-18 21:20:00,
2013-06-18 17:25:00,66.5,49.3,30.20,North,355,6.0,6.0,54,0.00,,,0.01,Wunderground v.1.15,2013-06-18 21:25:00,
2013-06-18 17:30:00,66.5,49.8,30.20,ENE,57,6.0,8.0,55,0.00,,,0.01,Wunderground v.1.15,2013-06-18 21:30:00,
2013-06-18 17:35:00,66.7,49.5,30.20,NW,316,6.0,8.0,54,0.00,,,0.01,Wunderground v.1.15,2013-06-18 21:35:00,
2013-06-18 17:40:00,66.8,49.6,30.20,NE,47,6.0,7.0,54,0.00,,,0.01,Wunderground v.1.15,2013-06-18 21:40:00,
2013-06-18 17:50:00,65.8,49.2,30.20,NNE,27,7.0,7.0,55,0.00,,,0.01,Wunderground v.1.15,2013-06-18 21:50:00,
2013-06-18 17:55:00,66.1,49.0,30.20,North,360,7.0,7.0,54,0.00,,,0.01,Wunderground v.1.15,2013-06-18 21:55:00,
2013-06-18 18:00:00,66.3,49.6,30.20,NNE,14,5.0,6.0,55,0.00,,,0.01,Wunderground v.1.15,2013-06-18 22:00:00,
2013-06-18 18:10:00,66.1,49.0,30.21,NNE,15,6.0,6.0,54,0.00,,,0.01,Wunderground v.1.15,2013-06-18 22:10:00,
2013-06-18 18:20:00,66.3,49.2,30.21,NNW,345,5.0,5.0,54,0.00,,,0.01,Wunderground v.1.15,2013-06-18 22:20:00,
2013-06-18 18:25:00,66.1,48.5,30.21,NNW,346,6.0,6.0,53,0.00,,,0.01,Wunderground v.1.15,2013-06-18 22:25:00,
2013-06-18 18:30:00,66.1,48.5,30.21,NNE,28,6.0,6.0,53,0.00,,,0.01,Wunderground v.1.15,2013-06-18 22:30:00,
2013-06-18 18:35:00,66.0,47.3,30.21,NNE,16,5.0,6.0,51,0.00,,,0.01,Wunderground v.1.15,2013-06-18 22:35:00,
2013-06-18 18:40:00,65.6,48.5,30.21,NNE,13,5.0,5.0,54,0.00,,,0.01,Wunderground v.1.15,2013-06-18 22:40:00,
2013-06-18 18:45:00,65.8,48.2,30.21,NNW,328,5.0,5.0,53,0.00,,,0.01,Wunderground v.1.15,2013-06-18 22:45:00,
2013-06-18 18:55:00,65.6,48.5,30.21,NW,321,5.0,6.0,54,0.00,,,0.01,Wunderground v.1.15,2013-06-18 22:55:00,
2013-06-18 19:00:00,65.4,48.8,30.21,NNE,12,5.0,5.0,55,0.00,,,0.01,Wunderground v.1.15,2013-06-18 23:00:00,
2013-06-18 19:05:00,65.6,49.0,30.21,NNW,331,4.0,12.0,55,0.00,,,0.01,Wunderground v.1.15,2013-06-18 23:05:00,
2013-06-18 19:10:00,65.4,49.8,30.21,NW,321,4.0,12.0,57,0.00,,,0.01,Wunderground v.1.15,2013-06-18 23:10:00,
2013-06-18 19:15:00,65.4,48.8,30.21,North,360,4.0,12.0,55,0.00,,,0.01,Wunderground v.1.15,2013-06-18 23:15:00,
2013-06-18 19:20:00,65.3,48.7,30.22,NNE,17,4.0,4.0,55,0.00,,,0.01,Wunderground v.1.15,2013-06-18 23:20:00,
2013-06-18 19:25:00,65.2,49.1,30.22,NNE,15,4.0,12.0,56,0.00,,,0.01,Wunderground v.1.15,2013-06-18 23:25:00,
2013-06-18 19:30:00,64.7,50.0,30.22,NNE,16,4.0,12.0,59,0.00,,,0.01,Wunderground v.1.15,2013-06-18 23:30:00,
2013-06-18 19:35:00,64.4,49.3,30.22,North,355,4.0,12.0,58,0.00,,,0.01,Wunderground v.1.15,2013-06-18 23:35:00,
2013-06-18 19:40:00,64.3,49.7,30.22,North,5,4.0,12.0,59,0.00,,,0.01,Wunderground v.1.15,2013-06-18 23:40:00,
2013-06-18 19:45:00,64.1,49.9,30.22,NNE,17,4.0,12.0,60,0.00,,,0.01,Wunderground v.1.15,2013-06-18 23:45:00,
2013-06-18 19:50:00,63.7,49.5,30.22,NNE,19,4.0,12.0,60,0.00,,,0.01,Wunderground v.1.15,2013-06-18 23:50:00,
2013-06-18 20:00:00,63.4,50.1,30.22,NNE,17,3.0,12.0,62,0.00,,,0.01,Wunderground v.1.15,2013-06-19 00:00:00,
2013-06-18 20:05:00,63.3,50.1,30.22,North,360,2.0,12.0,62,0.00,,,0.01,Wunderground v.1.15,2013-06-19 00:05:00,
2013-06-18 20:10:00,63.1,49.9,30.23,North,5,2.0,12.0,62,0.00,,,0.01,Wunderground v.1.15,2013-06-19 00:10:00,
2013-06-18 20:15:00,62.8,50.0,30.23,North,5,2.0,12.0,63,0.00,,,0.01,Wunderground v.1.15,2013-06-19 00:15:00,
2013-06-18 20:20:00,62.5,49.7,30.23,North,5,1.0,1.0,63,0.00,,,0.01,Wunderground v.1.15,2013-06-19 00:20:00,
2013-06-18 20:30:00,61.7,49.4,30.23,North,5,1.0,1.0,64,0.00,,,0.01,Wunderground v.1.15,2013-06-19 00:30:00,
2013-06-18 20:35:00,61.3,49.4,30.23,North,5,0.0,12.0,65,0.00,,,0.01,Wunderground v.1.15,2013-06-19 00:35:00,
2013-06-18 20:40:00,60.9,49.5,30.23,North,5,0.0,12.0,66,0.00,,,0.01,Wunderground v.1.15,2013-06-19 00:40:00,
2013-06-18 20:45:00,60.6,49.2,30.23,North,5,0.0,12.0,66,0.00,,,0.01,Wunderground v.1.15,2013-06-19 00:45:00,
2013-06-18 20:50:00,60.2,49.2,30.23,North,5,0.0,12.0,67,0.00,,,0.01,Wunderground v.1.15,2013-06-19 00:50:00,
2013-06-18 20:55:00,59.7,49.1,30.23,North,5,0.0,12.0,68,0.00,,,0.01,Wunderground v.1.15,2013-06-19 00:55:00,
2013-06-18 21:05:00,59.2,49.4,30.24,North,5,0.0,12.0,70,0.00,,,0.01,Wunderground v.1.15,2013-06-19 01:05:00,
2013-06-18 21:10:00,58.6,49.6,30.24,North,5,0.0,12.0,72,0.00,,,0.01,Wunderground v.1.15,2013-06-19 01:10:00,
2013-06-18 21:15:00,58.1,49.9,30.24,North,5,0.0,12.0,74,0.00,,,0.01,Wunderground v.1.15,2013-06-19 01:15:00,
2013-06-18 21:20:00,57.6,49.4,30.25,North,5,0.0,12.0,74,0.00,,,0.01,Wunderground v.1.15,2013-06-19 01:20:00,
2013-06-18 21:25:00,57.3,49.4,30.25,North,5,0.0,12.0,75,0.00,,,0.01,Wunderground v.1.15,2013-06-19 01:25:00,
2013-06-18 21:35:00,56.9,49.4,30.25,North,5,0.0,12.0,76,0.00,,,0.01,Wunderground v.1.15,2013-06-19 01:35:00,
2013-06-18 21:40:00,56.7,49.2,30.25,North,5,1.0,12.0,76,0.00,,,0.01,Wunderground v.1.15,2013-06-19 01:40:00,
2013-06-18 21:45:00,56.8,49.0,30.25,North,5,1.0,12.0,75,0.00,,,0.01,Wunderground v.1.15,2013-06-19 01:45:00,
2013-06-18 21:50:00,56.8,49.0,30.25,North,5,0.0,12.0,75,0.00,,,0.01,Wunderground v.1.15,2013-06-19 01:50:00,
2013-06-18 21:55:00,56.4,49.3,30.25,North,5,0.0,12.0,77,0.00,,,0.01,Wunderground v.1.15,2013-06-19 01:55:00,
2013-06-18 22:00:00,55.7,49.3,30.25,North,5,1.0,12.0,79,0.00,,,0.01,Wunderground v.1.15,2013-06-19 02:00:00,
2013-06-18 22:05:00,55.6,49.2,30.26,North,5,1.0,12.0,79,0.00,,,0.01,Wunderground v.1.15,2013-06-19 02:05:00,
2013-06-18 22:10:00,56.0,48.9,30.25,North,5,1.0,1.0,77,0.00,,,0.01,Wunderground v.1.15,2013-06-19 02:10:00,
2013-06-18 22:15:00,56.2,48.7,30.26,North,5,1.0,12.0,76,0.00,,,0.01,Wunderground v.1.15,2013-06-19 02:15:00,
2013-06-18 22:20:00,56.1,48.6,30.26,North,5,0.0,12.0,76,0.00,,,0.01,Wunderground v.1.15,2013-06-19 02:20:00,
2013-06-18 22:25:00,56.0,48.5,30.26,North,5,0.0,12.0,76,0.00,,,0.01,Wunderground v.1.15,2013-06-19 02:25:00,
2013-06-18 22:30:00,55.8,48.7,30.26,North,5,0.0,12.0,77,0.00,,,0.01,Wunderground v.1.15,2013-06-19 02:30:00,
2013-06-18 22:40:00,55.1,48.7,30.26,North,5,0.0,12.0,79,0.00,,,0.01,Wunderground v.1.15,2013-06-19 02:40:00,
2013-06-18 22:45:00,54.8,48.4,30.26,North,5,0.0,12.0,79,0.00,,,0.01,Wunderground v.1.15,2013-06-19 02:45:00,
2013-06-18 22:50:00,54.7,48.6,30.26,North,5,0.0,12.0,80,0.00,,,0.01,Wunderground v.1.15,2013-06-19 02:50:00,
2013-06-18 22:55:00,54.7,48.6,30.26,North,5,0.0,12.0,80,0.00,,,0.01,Wunderground v.1.15,2013-06-19 02:55:00,
2013-06-18 23:00:00,54.8,48.4,30.26,North,5,1.0,1.0,79,0.00,,,0.01,Wunderground v.1.15,2013-06-19 03:00:00,
2013-06-18 23:10:00,54.9,48.5,30.26,North,5,1.0,12.0,79,0.00,,,0.01,Wunderground v.1.15,2013-06-19 03:10:00,
2013-06-18 23:15:00,55.2,48.8,30.26,North,5,1.0,12.0,79,0.00,,,0.01,Wunderground v.1.15,2013-06-19 03:15:00,
2013-06-18 23:20:00,55.3,48.6,30.26,North,5,2.0,2.0,78,0.00,,,0.01,Wunderground v.1.15,2013-06-19 03:20:00,
2013-06-18 23:25:00,55.1,48.4,30.26,North,5,2.0,12.0,78,0.00,,,0.01,Wunderground v.1.15,2013-06-19 03:25:00,
2013-06-18 23:30:00,54.8,48.1,30.26,North,5,2.0,12.0,78,0.00,,,0.01,Wunderground v.1.15,2013-06-19 03:30:00,
2013-06-18 23:35:00,54.5,48.1,30.26,North,5,2.0,12.0,79,0.00,,,0.01,Wunderground v.1.15,2013-06-19 03:35:00,
2013-06-18 23:45:00,54.2,48.2,30.27,North,5,3.0,12.0,80,0.00,,,0.01,Wunderground v.1.15,2013-06-19 03:45:00,
2013-06-18 23:50:00,54.1,48.1,30.27,North,5,2.0,12.0,80,0.00,,,0.01,Wunderground v.1.15,2013-06-19 03:50:00,
2013-06-18 23:55:00,54.1,48.1,30.27,North,5,2.0,12.0,80,0.00,,,0.01,Wunderground v.1.15,2013-06-19 03:55:00,